Flight Track Log - Related Links

Times and Time Zones

All times are in EDT time to prevent confusion due to time zone crossing. See the AWE1940 flight status page for this flight to view local times or setup timezone preferences in your user account.


Time Position Orientation Groundspeed Altitude Reporting Facility
EDT Latitude Longitude Course Direction KTS MPH feet Rate Location/Type
Fri 11:28:06 PM 35.2019 -80.9633 72° East 173 199 1,500  Level Atlanta Center
Fri 11:29:01 PM 35.1611 -80.9953 213° Southwest 219 252 3,000 1,970 Climbing Atlanta Center
Fri 11:30:00 PM 35.1000 -80.6333 90° East  Level FlightAware Approximate
Fri 11:30:20 PM 35.0789 -80.9703 166° South 271 312 5,900  Level Atlanta Center
Fri 11:31:00 PM 35.1927 -80.5716 29° Northeast  Level FlightAware Approximate
Fri 11:31:20 PM 35.1061 -80.8856 69° East 189 217 8,800  Level Atlanta Center
Fri 11:32:00 PM 35.2840 -80.5067 30° Northeast  Level FlightAware Approximate
Fri 11:32:20 PM 35.1603 -80.8072 50° Northeast 241 277 10,700  Level Atlanta Center
Fri 11:33:00 PM 35.3449 -80.4230 72° East  Level FlightAware Approximate
Fri 11:34:17 PM 35.2658 -80.5678 62° Northeast 401 461 14,000  Level Washington Center
Fri 11:35:17 PM 35.3169 -80.4411 64° Northeast 419 482 16,900 2,370 Climbing Washington Center
Fri 11:36:16 PM 35.3722 -80.3147 62° Northeast 419 482 18,700 1,780 Climbing Washington Center
Fri 11:37:15 PM 35.4228 -80.1903 63° Northeast 431 496 20,400 1,934 Climbing Washington Center
Fri 11:38:17 PM 35.4844 -80.0533 61° Northeast 447 514 22,600 1,850 Climbing Washington Center
Fri 11:39:15 PM 35.5461 -79.9089 62° Northeast 452 520 24,100 1,587 Climbing Washington Center
Fri 11:40:18 PM 35.6075 -79.7639 62° Northeast 466 536 25,800 1,537 Climbing Washington Center
Fri 11:41:16 PM 35.6692 -79.6139 63° Northeast 482 555 27,200 1,692 Climbing Washington Center
Fri 11:42:15 PM 35.7369 -79.4533 62° Northeast 482 555 29,100 1,700 Climbing Washington Center
Fri 11:43:16 PM 35.7978 -79.3103 62° Northeast 477 549 30,600 1,377 Climbing Washington Center
Fri 11:44:17 PM 35.8567 -79.1644 63° Northeast 472 543 31,900 1,160 Climbing Washington Center
Fri 11:45:15 PM 35.9169 -79.0261 62° Northeast 464 534 32,900 550 Climbing Washington Center
Fri 11:46:17 PM 35.9753 -78.8825 63° Northeast 464 534 33,000 50 Climbing Washington Center
Fri 11:47:15 PM 36.0333 -78.7411 63° Northeast 464 534 33,000  Level Washington Center
Fri 11:48:17 PM 36.0914 -78.5967 64° Northeast 464 534 33,000  Level Washington Center
Fri 11:49:15 PM 36.1492 -78.4525 64° Northeast 464 534 33,000  Level Washington Center
Fri 11:50:14 PM 36.2067 -78.3128 63° Northeast 459 528 33,000  Level Washington Center
Fri 11:51:16 PM 36.2639 -78.1681 64° Northeast 464 534 33,000  Level Washington Center
Fri 11:52:17 PM 36.3192 -78.0256 64° Northeast 464 534 33,000  Level Washington Center
Fri 11:53:15 PM 36.3783 -77.8803 63° Northeast 464 534 33,000  Level Washington Center
Fri 11:54:17 PM 36.4331 -77.7347 65° Northeast 464 534 33,000  Level Washington Center
Fri 11:55:14 PM 36.4900 -77.5942 63° Northeast 458 527 33,000  Level Washington Center
Fri 11:56:15 PM 36.5400 -77.4583 65° Northeast 466 536 33,000  Level Washington Center
Fri 11:57:15 PM 36.5964 -77.3122 64° Northeast 466 536 33,000  Level Washington Center
Fri 11:58:15 PM 36.6547 -77.1636 64° Northeast 466 536 33,000  Level Washington Center
Fri 11:59:17 PM 36.7356 -77.0433 50° Northeast 461 531 33,000  Level Washington Center
Sat 12:00:17 AM 36.8411 -76.9492 36° Northeast 448 516 33,000  Level Washington Center
Sat 12:01:15 AM 36.9422 -76.8550 37° Northeast 448 516 33,000  Level Washington Center
Sat 12:02:15 AM 37.0456 -76.7550 38° Northeast 455 524 33,000  Level Washington Center
Sat 12:03:15 AM 37.1506 -76.6575 36° Northeast 467 537 33,000  Level Washington Center
Sat 12:04:14 AM 37.2664 -76.5469 37° Northeast 472 543 33,000  Level Washington Center
Sat 12:05:15 AM 37.3714 -76.4489 37° Northeast 472 543 33,000  Level Washington Center
Sat 12:06:15 AM 37.4783 -76.3481 37° Northeast 472 543 33,000  Level Washington Center
Sat 12:07:15 AM 37.5914 -76.2681 29° Northeast 467 537 33,000  Level Washington Center
Sat 12:08:15 AM 37.7044 -76.1878 29° Northeast 467 537 33,000  Level Washington Center
Sat 12:09:15 AM 37.8197 -76.1044 30° Northeast 461 531 33,000  Level Washington Center
Sat 12:10:17 AM 37.9306 -76.0236 30° Northeast 466 536 33,000  Level Washington Center
Sat 12:11:17 AM 38.0433 -75.9425 30° Northeast 466 536 33,000  Level Washington Center
Sat 12:12:15 AM 38.1583 -75.8611 29° Northeast 466 536 33,000  Level Washington Center
Sat 12:13:15 AM 38.2731 -75.7769 30° Northeast 466 536 33,000 -50 Level Washington Center
Sat 12:14:14 AM 38.3775 -75.7003 30° Northeast 472 543 32,900  Descending Washington Center
Sat 12:15:16 AM 38.4900 -75.6208 29° Northeast 472 543 33,000 50 Climbing Washington Center
Sat 12:16:14 AM 38.6047 -75.5358 30° Northeast 466 536 33,000  Level Washington Center
Sat 12:17:14 AM 38.7153 -75.4533 30° Northeast 466 536 33,000  Level Washington Center
Sat 12:18:15 AM 38.8275 -75.3731 29° Northeast 466 536 33,000  Level Washington Center
Sat 12:19:16 AM 38.9400 -75.2847 31° Northeast 466 536 33,000  Level Washington Center
Sat 12:20:15 AM 39.0503 -75.2042 30° Northeast 461 531 33,000  Level Washington Center
Sat 12:21:17 AM 39.1625 -75.1231 29° Northeast 461 531 33,000  Level Washington Center
Sat 12:23:00 AM 39.3428 -75.0407 17° North  Level FlightAware Approximate
Sat 12:28:32 AM 40.0469 -74.7386 16° North 455 524 33,000  Level Boston Center
Sat 12:29:32 AM 40.1542 -74.7017 15° North 429 494 33,000  Level Boston Center
Sat 12:30:00 AM 40.0944 -74.7686 15° North  Level FlightAware Approximate
Sat 12:30:32 AM 40.2736 -74.6594 15° North 429 494 33,000  Level Boston Center
Sat 12:31:00 AM 40.2019 -74.7297 15° North  Level FlightAware Approximate
Sat 12:31:32 AM 40.3933 -74.6200 14° North 429 494 33,000  Level Boston Center
Sat 12:32:00 AM 40.3093 -74.6907 16° North  Level FlightAware Approximate
Sat 12:32:32 AM 40.5150 -74.5775 15° North 440 506 33,000  Level Boston Center
Sat 12:33:00 AM 40.4167 -74.6515 16° North  Level FlightAware Approximate
Sat 12:33:32 AM 40.6322 -74.5403 14° North 440 506 33,000  Level Boston Center
Sat 12:34:32 AM 40.7539 -74.4978 15° North 440 506 33,000  Level Boston Center
Sat 12:35:32 AM 40.8736 -74.4547 15° North 440 506 33,000  Level Boston Center
Sat 12:36:32 AM 40.9931 -74.4144 14° North 440 506 33,000 -200 Level Boston Center
Sat 12:37:32 AM 41.1061 -74.3822 12° North 440 506 32,600 -2,050 Descending Boston Center
Sat 12:38:32 AM 41.2339 -74.3392 14° North 435 501 28,900 -3,300 Descending Boston Center
Sat 12:39:32 AM 41.3536 -74.2928 16° North 435 501 26,000 -1,450 Descending Boston Center
Sat 12:40:32 AM 41.4750 -74.2519 14° North 435 501 26,000  Level Boston Center
Sat 12:41:32 AM 41.6008 -74.2114 14° North 449 517 26,000 -750 Level Boston Center
Sat 12:42:32 AM 41.7244 -74.1675 15° North 455 524 24,500 -2,350 Descending Boston Center
Sat 12:43:32 AM 41.8375 -74.1314 13° North 443 510 21,300 -3,200 Descending Boston Center
Sat 12:44:32 AM 41.9381 -74.0922 16° North 415 478 18,100 -3,000 Descending Boston Center
Sat 12:45:32 AM 42.0597 -74.0481 15° North 409 471 15,300 -2,800 Descending Boston Center
Sat 12:46:02 AM 42.1100 -74.0325 13° North 396 456 13,900 -2,700 Descending Boston Center
Sat 12:46:32 AM 42.1622 -74.0114 17° North 396 456 12,600 -2,364 Descending Boston Center
Sat 12:47:08 AM 42.2272 -73.9906 13° North 374 430 11,300 -1,500 Descending Boston Center
Sat 12:47:32 AM 42.2589 -73.9717 24° Northeast 367 422 11,100 -1,475 Descending Boston Center
Sat 12:48:09 AM 42.3092 -73.9533 15° North 291 335 9,800 -1,900 Descending Boston Center
Sat 12:48:32 AM 42.3383 -73.9400 19° North 317 365 9,200 -2,600 Descending Boston Center
Sat 12:49:09 AM 42.3844 -73.9214 17° North 267 307 7,200 -2,900 Descending Boston Center
Sat 12:49:32 AM 42.4117 -73.9081 20° North 281 323 6,300 -2,557 Descending Boston Center
Sat 12:50:10 AM 42.4578 -73.8894 17° North 272 313 4,600 -2,400 Descending Boston Center
Sat 12:50:32 AM 42.4767 -73.8758 28° Northeast 275 316 3,900 -1,377 Descending Boston Center
Sat 12:51:11 AM 42.5269 -73.8572 15° North 269 310 3,200 -800 Descending Boston Center
Sat 12:51:32 AM 42.5500 -73.8464 19° North 259 298 3,100 -300 Descending Boston Center
Sat 12:52:11 AM 42.5897 -73.8333 14° North 228 262 2,900 -100 Descending Boston Center
Sat 12:52:32 AM 42.6044 -73.8250 23° Northeast 244 281 3,000 -689 Climbing Boston Center
Sat 12:53:12 AM 42.6381 -73.8089 19° North 179 206 2,200 -500 Descending Boston Center
Sat 12:53:32 AM 42.6675 -73.7983 15° North 220 253 2,500 -984 Climbing Boston Center
Sat 12:54:13 AM 42.6881 -73.8044 348° North 157 181 1,200 -1,248 Descending Boston Center
Sat 12:55:13 AM 42.7278 -73.8081 356° North 128 147 400 -800 Descending Boston Center

Login

Don't have an account? Register now (free) for customized features, flight alerts, and more!